sim
Sign-in with your pilot id or email,
or register
Callsign
Passwort

Schedule Details

Flight Number: DLH1717 (3)
Departure: Split Airport (LDSP) at 14:20
Arrival: Munich Airport (EDDM) at 15:45
Route: Lufthansa Passenger Schedule. Enter filed route here before submitting Pirep.

Weather Information
Getting current METAR information for LDSP 231230Z 06003KT 350V130 9999 VCTS FEW025CB SCT030 25/19 Q1011 TEMPO TSRA
Getting current METAR information for EDDM 231250Z 25005KT 230V290 6000 SHRA SCT015 SCT020CB BKN043 18/15 Q1010 TEMPO 4000

Schedule Frequency

Route Map